Flight Track Log - Related Links

Times and Time Zones

All times are in EDT time to prevent confusion due to time zone crossing. See the UAL623 flight status page for this flight to view local times or setup timezone preferences in your user account.


Time Position Orientation Groundspeed Altitude Reporting Facility
EDT Latitude Longitude Course Direction KTS MPH feet Rate Location/Type
Thu 11:28:26 AM 28.4500 -81.3167 North 157 181 700  Level Orlando TRACON
Thu 11:29:08 AM 28.4667 -81.3167 360° North 158 182 2,300 1,875 Climbing Orlando TRACON
Thu 11:30:02 AM 28.5167 -81.3333 344° North 171 197 3,700 1,579 Climbing Orlando TRACON
Thu 11:31:00 AM 28.7456 -81.3500 North  Level FlightAware Approximate
Thu 11:31:02 AM 28.5833 -81.3333 360° North 280 322 5,300  Level Orlando TRACON
Thu 11:32:00 AM 28.8581 -81.3549 350° North  Level FlightAware Approximate
Thu 11:32:03 AM 28.6667 -81.3333 360° North 285 328 8,500  Level Orlando TRACON
Thu 11:33:00 AM 28.9701 -81.3667 North  Level FlightAware Approximate
Thu 11:34:27 AM 28.8492 -81.4278 336° Northwest 310 357 14,200  Level Jacksonville Center
Thu 11:35:27 AM 28.9372 -81.4761 334° Northwest 337 388 16,400 2,100 Climbing Jacksonville Center
Thu 11:36:27 AM 29.0378 -81.5056 346° North 347 399 18,400 1,950 Climbing Jacksonville Center
Thu 11:37:27 AM 29.1383 -81.5375 344° North 366 421 20,300 1,900 Climbing Jacksonville Center
Thu 11:38:27 AM 29.2306 -81.5694 343° North 372 428 22,200 1,800 Climbing Jacksonville Center
Thu 11:39:27 AM 29.3353 -81.6039 344° North 383 441 23,900 1,600 Climbing Jacksonville Center
Thu 11:40:27 AM 29.4400 -81.6406 343° North 388 447 25,400 1,400 Climbing Jacksonville Center
Thu 11:41:27 AM 29.5489 -81.6750 345° North 393 452 26,700 1,400 Climbing Jacksonville Center
Thu 11:42:27 AM 29.6619 -81.7119 344° North 403 464 28,200 1,300 Climbing Jacksonville Center
Thu 11:43:27 AM 29.7728 -81.7489 344° North 408 470 29,300 1,050 Climbing Jacksonville Center
Thu 11:44:27 AM 29.8881 -81.7858 344° North 418 481 30,300 950 Climbing Jacksonville Center
Thu 11:45:27 AM 30.0072 -81.8083 351° North 423 487 31,200 1,200 Climbing Jacksonville Center
Thu 11:46:27 AM 30.1283 -81.8167 357° North 429 494 32,700 1,350 Climbing Jacksonville Center
Thu 11:47:27 AM 30.2475 -81.8297 355° North 429 494 33,900 1,100 Climbing Jacksonville Center
Thu 11:48:27 AM 30.3686 -81.8406 356° North 424 488 34,900 900 Climbing Jacksonville Center
Thu 11:49:27 AM 30.4897 -81.8511 356° North 424 488 35,700 1,000 Climbing Jacksonville Center
Thu 11:50:27 AM 30.6194 -81.8667 354° North 424 488 36,900 600 Climbing Jacksonville Center
Thu 11:51:27 AM 30.7344 -81.8775 355° North 424 488 36,900  Level Jacksonville Center
Thu 11:52:27 AM 30.8514 -81.8908 354° North 424 488 36,900  Level Jacksonville Center
Thu 11:53:27 AM 30.9706 -81.8992 357° North 424 488 36,900  Level Jacksonville Center
Thu 11:54:27 AM 31.0853 -81.9100 355° North 424 488 36,900  Level Jacksonville Center
Thu 11:55:27 AM 31.2025 -81.9236 354° North 419 482 36,900  Level Jacksonville Center
Thu 11:56:27 AM 31.3194 -81.9319 357° North 419 482 36,900 50 Level Jacksonville Center
Thu 11:57:27 AM 31.4364 -81.9406 356° North 424 488 37,000 50 Climbing Jacksonville Center
Thu 11:58:27 AM 31.5408 -81.9542 354° North 424 488 37,000  Level Jacksonville Center
Thu 12:00:34 PM 31.8025 -81.9789 355° North 435 501 37,000  Level Atlanta Center
Thu 12:01:34 PM 31.9217 -81.9908 355° North 423 487 37,000  Level Atlanta Center
Thu 12:02:34 PM 32.0344 -82.0006 356° North 423 487 37,000  Level Atlanta Center
Thu 12:03:34 PM 32.1494 -82.0125 355° North 416 479 37,000  Level Atlanta Center
Thu 12:04:34 PM 32.2644 -82.0197 357° North 416 479 37,000  Level Atlanta Center
Thu 12:05:34 PM 32.3794 -82.0319 355° North 411 473 37,000  Level Atlanta Center
Thu 12:06:34 PM 32.4922 -82.0417 356° North 411 473 37,000  Level Atlanta Center
Thu 12:07:34 PM 32.6072 -82.0564 354° North 406 467 37,000  Level Atlanta Center
Thu 12:08:34 PM 32.7200 -82.0636 357° North 406 467 37,000  Level Atlanta Center
Thu 12:09:34 PM 32.8372 -82.0758 355° North 406 467 37,000  Level Atlanta Center
Thu 12:10:34 PM 32.9500 -82.0881 355° North 406 467 37,000  Level Atlanta Center
Thu 12:11:34 PM 33.0672 -82.1003 355° North 406 467 37,000  Level Atlanta Center
Thu 12:12:34 PM 33.1781 -82.1103 356° North 406 467 37,000  Level Atlanta Center
Thu 12:13:34 PM 33.2950 -82.1228 355° North 411 473 37,000  Level Atlanta Center
Thu 12:14:34 PM 33.4100 -82.1325 356° North 411 473 37,000  Level Atlanta Center
Thu 12:15:34 PM 33.5167 -82.1428 355° North 418 481 37,000  Level Atlanta Center
Thu 12:16:34 PM 33.6336 -82.1525 356° North 418 481 37,000  Level Atlanta Center
Thu 12:17:34 PM 33.7506 -82.1525 360° North 423 487 37,000  Level Atlanta Center
Thu 12:18:34 PM 33.8672 -82.1325 North 418 481 37,000  Level Atlanta Center
Thu 12:19:34 PM 33.9817 -82.1147 North 418 481 37,000  Level Atlanta Center
Thu 12:20:34 PM 34.0981 -82.0947 North 418 481 37,000  Level Atlanta Center
Thu 12:21:34 PM 34.2106 -82.0744 North 418 481 37,000  Level Atlanta Center
Thu 12:22:34 PM 34.3353 -82.0514 North 411 473 37,000 -50 Level Atlanta Center
Thu 12:23:34 PM 34.4478 -82.0336 North 406 467 36,900  Descending Atlanta Center
Thu 12:24:34 PM 34.5622 -82.0108 North 406 467 37,000 50 Climbing Atlanta Center
Thu 12:25:34 PM 34.6747 -81.9931 North 406 467 37,000  Level Atlanta Center
Thu 12:26:34 PM 34.7911 -81.9697 North 412 474 37,000  Level Atlanta Center
Thu 12:27:34 PM 34.9056 -81.9517 North 412 474 37,000  Level Atlanta Center
Thu 12:28:34 PM 35.0200 -81.9336 North 412 474 37,000  Level Atlanta Center
Thu 12:29:34 PM 35.1325 -81.9258 North 406 467 37,000  Level Atlanta Center
Thu 12:30:34 PM 35.2472 -81.9228 North 406 467 37,000 -50 Level Atlanta Center
Thu 12:31:34 PM 35.3597 -81.9175 North 401 461 36,900  Descending Atlanta Center
Thu 12:32:34 PM 35.4703 -81.9119 North 401 461 37,000 50 Climbing Atlanta Center
Thu 12:33:34 PM 35.5703 -81.9069 North 401 461 37,000  Level Atlanta Center
Thu 12:34:34 PM 35.6831 -81.9014 North 401 461 37,000  Level Atlanta Center
Thu 12:35:34 PM 35.7997 -81.8958 North 401 461 37,000  Level Atlanta Center
Thu 12:36:34 PM 35.9164 -81.8900 North 408 470 37,000  Level Atlanta Center
Thu 12:37:34 PM 36.0436 -81.8842 North 414 476 37,000  Level Atlanta Center
Thu 12:38:34 PM 36.1622 -81.8758 North 428 493 37,000  Level Atlanta Center
Thu 12:39:34 PM 36.2769 -81.8703 North 413 475 37,000 -50 Level Atlanta Center
Thu 12:40:34 PM 36.3914 -81.8672 North 408 470 36,900 -50 Descending Atlanta Center
Thu 12:41:34 PM 36.5081 -81.8589 North 403 464 36,900 50 Level Atlanta Center
Thu 12:42:34 PM 36.6083 -81.8561 North 403 464 37,000 226 Climbing Atlanta Center
Thu 12:44:13 PM 36.7950 -81.8447 North 403 464 37,500 373 Climbing Indianapolis Center
Thu 12:45:15 PM 36.9131 -81.8392 North 419 482 38,000 532 Climbing Indianapolis Center
Thu 12:46:17 PM 37.0483 -81.8333 North 418 481 38,600 484 Climbing Indianapolis Center
Thu 12:47:19 PM 37.1653 -81.8272 North 418 481 39,000 194 Climbing Indianapolis Center
Thu 12:48:21 PM 37.2822 -81.8231 North 419 482 39,000  Level Indianapolis Center
Thu 12:49:23 PM 37.3981 -81.8172 North 416 479 39,000  Level Indianapolis Center
Thu 12:50:25 PM 37.5156 -81.8122 North 422 486 39,000  Level Indianapolis Center
Thu 12:51:28 PM 37.6317 -81.8056 North 418 481 39,000  Level Indianapolis Center
Thu 12:52:29 PM 37.7697 -81.8000 North 423 487 39,000  Level Indianapolis Center
Thu 12:53:31 PM 37.8742 -81.7936 North 422 486 39,000  Level Indianapolis Center
Thu 12:54:33 PM 37.9919 -81.7911 North 422 486 39,000  Level Indianapolis Center
Thu 12:55:35 PM 38.1319 -81.8117 353° North 419 482 39,000  Level Indianapolis Center
Thu 12:56:37 PM 38.2506 -81.8269 354° North 424 488 39,000 -387 Level Indianapolis Center
Thu 12:57:39 PM 38.3683 -81.8425 354° North 424 488 38,200 -823 Descending Indianapolis Center
Thu 12:58:41 PM 38.4833 -81.8567 354° North 412 474 37,300 -1,694 Descending Indianapolis Center
Thu 12:59:43 PM 38.5894 -81.8728 353° North 384 442 34,700 -1,597 Descending Indianapolis Center
Thu 01:00:45 PM 38.7017 -81.8875 354° North 397 457 34,000 -339 Descending Indianapolis Center
Thu 01:01:47 PM 38.8175 -81.9025 354° North 411 473 34,000  Level Indianapolis Center
Thu 01:02:49 PM 38.9311 -81.9175 354° North 407 468 34,000  Level Indianapolis Center
Thu 01:03:51 PM 39.0431 -81.9319 354° North 403 464 34,000  Level Indianapolis Center
Thu 01:04:53 PM 39.1781 -81.9508 354° North 405 466 34,000  Level Indianapolis Center
Thu 01:05:55 PM 39.2892 -81.9644 355° North 399 459 34,000 -387 Level Indianapolis Center
Thu 01:06:57 PM 39.3983 -81.9808 353° North 394 453 33,200 -1,935 Descending Indianapolis Center
Thu 01:07:59 PM 39.5100 -81.9961 354° North 403 464 30,000 -2,758 Descending Indianapolis Center
Thu 01:09:01 PM 39.6247 -82.0097 355° North 412 474 27,500 -2,468 Descending Indianapolis Center
Thu 01:10:03 PM 39.7433 -82.0267 354° North 404 465 24,900 -2,177 Descending Indianapolis Center
Thu 01:11:05 PM 39.8525 -82.0428 354° North 392 451 23,000 -968 Descending Indianapolis Center
Thu 01:12:07 PM 39.9603 -82.0581 354° North 389 448 22,900 -48 Descending Indianapolis Center
Thu 01:13:09 PM 40.0853 -82.0331 North 398 458 22,900  Level Indianapolis Center
Thu 01:14:12 PM 40.1914 -81.9864 19° North 401 461 22,900 -96 Level Indianapolis Center
Thu 01:15:14 PM 40.2936 -81.9422 18° North 396 456 22,700 -1,161 Descending Indianapolis Center
Thu 01:16:16 PM 40.3967 -81.8956 19° North 389 448 20,500 -2,152 Descending Indianapolis Center
Thu 01:16:46 PM 40.4475 -81.8736 18° North 381 438 19,400 -2,067 Descending Cleveland Center
Thu 01:17:46 PM 40.5439 -81.8289 19° North 376 433 17,400 -2,150 Descending Cleveland Center
Thu 01:18:46 PM 40.6383 -81.7869 19° North 360 414 15,100 -2,450 Descending Cleveland Center
Thu 01:19:46 PM 40.7303 -81.7447 19° North 350 403 12,500 -2,350 Descending Cleveland Center
Thu 01:20:46 PM 40.8286 -81.7136 13° North 350 403 10,400 -1,250 Descending Cleveland Center
Thu 01:21:46 PM 40.9139 -81.7397 347° North 321 369 10,000 -200 Descending Cleveland Center
Thu 01:22:46 PM 40.9844 -81.7822 336° Northwest 289 333 10,000  Level Cleveland Center
Thu 01:23:01 PM 41.0031 -81.7964 330° Northwest 274 315 10,000 -200 Level Cleveland Center
Thu 01:23:46 PM 41.0547 -81.8222 339° North 279 321 9,800 -689 Descending Cleveland Center
Thu 01:24:02 PM 41.0714 -81.8336 333° Northwest 274 315 9,300 -1,600 Descending Cleveland Center
Thu 01:24:46 PM 41.1253 -81.8594 340° North 273 314 8,200 -1,603 Descending Cleveland Center
Thu 01:25:58 PM 41.2039 -81.9161 332° Northwest 266 306 6,200 -1,700 Descending Cleveland Center
Thu 01:26:46 PM 41.2472 -81.9528 328° Northwest 262 302 4,800 -1,455 Descending Cleveland Center
Thu 01:27:04 PM 41.2697 -81.9728 326° Northwest 235 270 4,600 -800 Descending Cleveland Center
Thu 01:27:46 PM 41.2986 -81.9983 326° Northwest 243 280 4,000 -1,180 Descending Cleveland Center
Thu 01:28:05 PM 41.3217 -81.9958 North 193 222 3,400 -1,400 Descending Cleveland Center
Thu 01:28:46 PM 41.3408 -81.9633 52° Northeast 157 181 2,600 -1,180 Descending Cleveland Center
Thu 01:29:06 PM 41.3536 -81.9469 44° Northeast 178 205 2,200 -1,200 Descending Cleveland Center

Login

Don't have an account? Register now (free) for customized features, flight alerts, and more!